Time,TemperatureF,DewpointF,PressureIn,WindDirection,WindDirectionDegrees,WindSpeedMPH,WindSpeedGustMPH,Humidity,HourlyPrecipIn,Conditions,Clouds,dailyrainin,SolarRadiationWatts/m^2,SoftwareType,DateUTC
2013-03-04 01:00:00,26.0,22.0,29.63,West,276,23.0,-999.0,82,-99.99,,,-99.99,0.030000,,2013-03-04 08:00:00,
2013-03-04 01:52:00,26.0,22.0,29.63,West,276,23.0,-999.0,82,-99.99,,,-99.99,0.030000,,2013-03-04 08:52:00,
2013-03-04 02:00:00,25.0,21.0,29.63,West,260,19.0,-999.0,84,-99.99,,,-99.99,0.040000,,2013-03-04 09:00:00,
2013-03-04 02:52:00,25.0,21.0,29.63,West,260,19.0,-999.0,84,-99.99,,,-99.99,0.040000,,2013-03-04 09:52:00,
2013-03-04 03:00:00,27.0,24.0,29.61,West,259,21.0,-999.0,88,-99.99,,,-99.99,0.030000,,2013-03-04 10:00:00,
2013-03-04 03:52:00,27.0,24.0,29.61,West,259,21.0,-999.0,88,-99.99,,,-99.99,0.030000,,2013-03-04 10:52:00,
2013-03-04 04:00:00,21.0,20.0,29.63,NW,304,18.0,-999.0,93,-99.99,,,-99.99,0.040000,,2013-03-04 11:00:00,
2013-03-04 04:52:00,21.0,20.0,29.63,NW,304,18.0,-999.0,93,-99.99,,,-99.99,0.040000,,2013-03-04 11:52:00,
2013-03-04 05:00:00,19.0,17.0,29.67,NNW,331,19.0,-999.0,92,-99.99,,,-99.99,0.050000,,2013-03-04 12:00:00,
2013-03-04 05:53:00,19.0,17.0,29.67,NNW,331,19.0,-999.0,92,-99.99,,,-99.99,0.050000,,2013-03-04 12:53:00,
2013-03-04 06:00:00,18.0,17.0,29.69,NW,326,22.0,-999.0,93,-99.99,,,-99.99,0.040000,,2013-03-04 13:00:00,
2013-03-04 06:52:00,18.0,17.0,29.69,NW,326,22.0,-999.0,93,-99.99,,,-99.99,0.040000,,2013-03-04 13:52:00,
2013-03-04 07:00:00,18.0,16.0,29.73,NW,323,25.0,-999.0,93,-99.99,,,-99.99,4.580000,,2013-03-04 14:00:00,
2013-03-04 07:52:00,18.0,16.0,29.73,NW,323,25.0,-999.0,93,-99.99,,,-99.99,4.580000,,2013-03-04 14:52:00,
2013-03-04 08:00:00,18.0,16.0,29.76,NNW,328,28.0,-999.0,93,-99.99,,,-99.99,68.430000,,2013-03-04 15:00:00,
2013-03-04 08:52:00,18.0,16.0,29.76,NNW,328,28.0,-999.0,93,-99.99,,,-99.99,68.430000,,2013-03-04 15:52:00,
2013-03-04 09:00:00,17.0,16.0,29.81,NNW,338,32.0,-999.0,93,-99.99,,,-99.99,186.800003,,2013-03-04 16:00:00,
2013-03-04 09:52:00,17.0,16.0,29.81,NNW,338,32.0,-999.0,93,-99.99,,,-99.99,186.800003,,2013-03-04 16:52:00,
2013-03-04 10:00:00,17.0,16.0,29.86,NNW,339,31.0,-999.0,93,-99.99,,,-99.99,183.199997,,2013-03-04 17:00:00,
2013-03-04 10:52:00,17.0,16.0,29.86,NNW,339,31.0,-999.0,93,-99.99,,,-99.99,183.199997,,2013-03-04 17:52:00,
2013-03-04 11:00:00,16.0,15.0,29.90,NNW,335,32.0,-999.0,93,-99.99,,,-99.99,256.100006,,2013-03-04 18:00:00,
2013-03-04 11:52:00,16.0,15.0,29.90,NNW,335,32.0,-999.0,93,-99.99,,,-99.99,256.100006,,2013-03-04 18:52:00,
2013-03-04 12:00:00,16.0,14.0,29.94,NNW,335,32.0,-999.0,92,-99.99,,,-99.99,307.299988,,2013-03-04 19:00:00,
2013-03-04 12:52:00,16.0,14.0,29.94,NNW,335,32.0,-999.0,92,-99.99,,,-99.99,307.299988,,2013-03-04 19:52:00,
2013-03-04 13:00:00,15.0,14.0,29.97,NNW,332,30.0,-999.0,92,-99.99,,,-99.99,330.399994,,2013-03-04 20:00:00,
2013-03-04 13:53:00,15.0,14.0,29.97,NNW,332,30.0,-999.0,92,-99.99,,,-99.99,330.399994,,2013-03-04 20:53:00,
2013-03-04 14:00:00,15.0,13.0,30.01,NNW,327,30.0,-999.0,91,-99.99,,,-99.99,303.799988,,2013-03-04 21:00:00,
2013-03-04 14:53:00,15.0,13.0,30.01,NNW,327,30.0,-999.0,91,-99.99,,,-99.99,303.799988,,2013-03-04 21:53:00,
2013-03-04 15:00:00,15.0,13.0,30.03,NW,325,30.0,-999.0,91,-99.99,,,-99.99,335.600006,,2013-03-04 22:00:00,
2013-03-04 15:52:00,15.0,13.0,30.03,NW,325,30.0,-999.0,91,-99.99,,,-99.99,335.600006,,2013-03-04 22:52:00,
2013-03-04 16:00:00,14.0,12.0,30.09,NW,320,30.0,-999.0,90,-99.99,,,-99.99,230.399994,,2013-03-04 23:00:00,
2013-03-04 16:52:00,14.0,12.0,30.09,NW,320,30.0,-999.0,90,-99.99,,,-99.99,230.399994,,2013-03-04 23:52:00,
2013-03-04 17:00:00,15.0,13.0,30.12,NW,318,26.0,-999.0,90,-99.99,,,-99.99,105.500000,,2013-03-05 00:00:00,
2013-03-04 17:52:00,15.0,13.0,30.12,NW,318,26.0,-999.0,90,-99.99,,,-99.99,105.500000,,2013-03-05 00:52:00,
2013-03-04 18:00:00,14.0,12.0,30.16,NW,319,25.0,-999.0,90,-99.99,,,-99.99,21.980000,,2013-03-05 01:00:00,
2013-03-04 18:52:00,14.0,12.0,30.16,NW,319,25.0,-999.0,90,-99.99,,,-99.99,21.980000,,2013-03-05 01:52:00,
2013-03-04 19:00:00,13.0,10.0,30.19,NW,318,23.0,-999.0,89,-99.99,,,-99.99,0.180000,,2013-03-05 02:00:00,
2013-03-04 19:52:00,13.0,10.0,30.19,NW,318,23.0,-999.0,89,-99.99,,,-99.99,0.180000,,2013-03-05 02:52:00,
2013-03-04 20:00:00,11.0,8.0,30.20,NW,322,21.0,-999.0,88,-99.99,,,-99.99,0.040000,,2013-03-05 03:00:00,
2013-03-04 20:52:00,11.0,8.0,30.20,NW,322,21.0,-999.0,88,-99.99,,,-99.99,0.040000,,2013-03-05 03:52:00,
2013-03-04 21:00:00,9.0,6.0,30.22,NW,321,20.0,-999.0,87,-99.99,,,-99.99,0.040000,,2013-03-05 04:00:00,
2013-03-04 21:52:00,9.0,6.0,30.22,NW,321,20.0,-999.0,87,-99.99,,,-99.99,0.040000,,2013-03-05 04:52:00,
2013-03-04 23:00:00,9.0,6.0,30.24,NW,318,12.0,-999.0,88,-99.99,,,-99.99,0.040000,,2013-03-05 06:00:00,
2013-03-04 23:52:00,9.0,6.0,30.24,NW,318,12.0,-999.0,88,-99.99,,,-99.99,0.040000,,2013-03-05 06:52:00,